createdAt,value
2017-12-04T00:02:26.718Z,41.20
2017-12-04T00:04:55.003Z,41.12
2017-12-04T00:07:23.388Z,41.07
2017-12-04T00:09:51.659Z,41.01
2017-12-04T00:12:19.969Z,40.94
2017-12-04T00:14:48.428Z,40.95
2017-12-04T00:17:16.733Z,40.92
2017-12-04T00:19:45.159Z,40.93
2017-12-04T00:22:13.505Z,40.88
2017-12-04T00:24:41.791Z,41.07
2017-12-04T00:27:10.221Z,41.33
2017-12-04T00:29:38.498Z,41.52
2017-12-04T00:32:06.807Z,41.51
2017-12-04T00:34:35.131Z,41.57
2017-12-04T00:37:03.463Z,41.69
2017-12-04T00:39:31.760Z,41.80
2017-12-04T00:42:00.047Z,41.86
2017-12-04T00:44:28.364Z,41.89
2017-12-04T00:46:56.663Z,41.83
2017-12-04T00:49:24.920Z,41.59
2017-12-04T00:51:53.223Z,41.56
2017-12-04T00:54:21.541Z,41.56
2017-12-04T00:56:49.939Z,41.56
2017-12-04T00:59:18.307Z,41.55
2017-12-04T01:01:46.616Z,41.49
2017-12-04T01:04:14.875Z,41.45
2017-12-04T01:06:43.191Z,41.40
2017-12-04T01:09:11.462Z,41.36
2017-12-04T01:11:40.030Z,41.32
2017-12-04T01:14:08.291Z,41.33
2017-12-04T01:16:37.206Z,41.32
2017-12-04T01:19:05.481Z,41.30
2017-12-04T01:21:33.787Z,41.31
2017-12-04T01:24:02.097Z,41.28
2017-12-04T01:26:30.475Z,41.25
2017-12-04T01:28:58.774Z,41.34
2017-12-04T01:31:27.066Z,41.35
2017-12-04T01:33:55.351Z,41.36
2017-12-04T01:36:23.655Z,41.40
2017-12-04T01:38:51.926Z,41.40
2017-12-04T01:41:20.253Z,41.39
2017-12-04T01:43:48.551Z,41.42
2017-12-04T01:46:16.850Z,41.39
2017-12-04T01:48:45.111Z,41.39
2017-12-04T01:51:13.455Z,41.34
2017-12-04T01:53:41.744Z,41.42
2017-12-04T01:56:10.100Z,41.41
2017-12-04T01:58:38.418Z,41.42
2017-12-04T02:01:06.729Z,41.43
2017-12-04T02:03:35.015Z,41.39
2017-12-04T02:06:03.351Z,41.37
2017-12-04T02:08:31.693Z,41.29
2017-12-04T02:11:00.016Z,41.34
2017-12-04T02:13:28.353Z,41.33
2017-12-04T02:15:56.831Z,41.37
2017-12-04T02:18:25.156Z,41.41
2017-12-04T02:20:53.476Z,41.43
2017-12-04T02:23:21.956Z,41.44
2017-12-04T02:25:50.252Z,41.35
2017-12-04T02:28:18.531Z,41.37
2017-12-04T02:30:46.833Z,41.34
2017-12-04T02:33:16.176Z,41.36
2017-12-04T02:35:44.490Z,41.37
2017-12-04T02:38:13.121Z,41.32
2017-12-04T02:40:41.423Z,41.35
2017-12-04T02:43:09.692Z,41.37
2017-12-04T02:45:38.003Z,41.35
2017-12-04T02:48:06.300Z,41.33
2017-12-04T02:50:34.605Z,41.31
2017-12-04T02:53:02.913Z,41.34
2017-12-04T02:55:31.400Z,41.37
2017-12-04T02:57:59.863Z,41.38
2017-12-04T03:00:28.228Z,41.40
2017-12-04T03:02:56.522Z,41.33
2017-12-04T03:05:24.830Z,41.32
2017-12-04T03:07:53.123Z,41.32
2017-12-04T03:10:21.404Z,41.36
2017-12-04T03:12:49.695Z,41.41
2017-12-04T03:15:17.987Z,41.48
2017-12-04T03:17:46.695Z,41.68
2017-12-04T03:20:15.029Z,41.62
2017-12-04T03:22:43.375Z,41.54
2017-12-04T03:25:11.799Z,41.49
2017-12-04T03:27:40.182Z,41.45
2017-12-04T03:30:08.525Z,41.43
2017-12-04T03:32:36.804Z,41.35
2017-12-04T03:35:05.156Z,41.36
2017-12-04T03:37:33.468Z,41.43
2017-12-04T03:40:01.717Z,41.47
2017-12-04T03:42:30.099Z,41.32
2017-12-04T03:44:58.340Z,41.32
2017-12-04T03:47:26.836Z,41.29
2017-12-04T03:49:55.119Z,41.34
2017-12-04T03:52:23.499Z,41.37
2017-12-04T03:54:51.803Z,41.42
2017-12-04T03:57:20.249Z,41.41
2017-12-04T03:59:48.507Z,41.40
2017-12-04T04:02:17.027Z,41.26
2017-12-04T04:04:45.294Z,41.24
2017-12-04T04:07:13.664Z,41.30
2017-12-04T04:09:41.969Z,41.29
2017-12-04T04:12:10.295Z,41.33
2017-12-04T04:14:38.568Z,41.30
2017-12-04T04:17:06.963Z,41.19
2017-12-04T04:19:35.260Z,41.23
2017-12-04T04:22:03.622Z,41.21
2017-12-04T04:24:31.914Z,41.45
2017-12-04T04:27:00.283Z,41.51
2017-12-04T04:29:28.715Z,41.51
2017-12-04T04:31:57.024Z,41.44
2017-12-04T04:34:25.356Z,41.41
2017-12-04T04:36:53.783Z,41.36
2017-12-04T04:39:22.042Z,41.34
2017-12-04T04:41:50.342Z,41.27
2017-12-04T04:44:18.618Z,41.24
2017-12-04T04:46:46.932Z,41.18
2017-12-04T04:49:15.322Z,41.23
2017-12-04T04:51:43.623Z,41.23
2017-12-04T04:54:11.934Z,41.26
2017-12-04T04:56:40.232Z,41.27
2017-12-04T04:59:08.545Z,41.22
2017-12-04T05:01:36.839Z,41.22
2017-12-04T05:04:05.215Z,41.24
2017-12-04T05:06:33.475Z,41.31
2017-12-04T05:09:01.778Z,41.33
2017-12-04T05:11:30.072Z,41.32
2017-12-04T05:13:58.356Z,41.19
2017-12-04T05:16:26.819Z,41.20
2017-12-04T05:18:55.106Z,41.28
2017-12-04T05:21:23.412Z,41.24
2017-12-04T05:23:51.725Z,41.26
2017-12-04T05:26:20.084Z,41.49
2017-12-04T05:28:48.370Z,41.49
2017-12-04T05:31:16.708Z,41.49
2017-12-04T05:33:45.137Z,41.51
2017-12-04T05:36:13.438Z,41.51
2017-12-04T05:38:41.723Z,41.55
2017-12-04T05:41:10.032Z,41.52
2017-12-04T05:43:38.297Z,41.48
2017-12-04T05:46:06.633Z,41.39
2017-12-04T05:48:34.899Z,41.37
2017-12-04T05:51:03.279Z,41.33
2017-12-04T05:53:31.574Z,41.72
2017-12-04T05:55:59.885Z,41.93
2017-12-04T05:58:28.308Z,42.01
2017-12-04T06:00:56.595Z,42.21
2017-12-04T06:03:25.895Z,42.15
2017-12-04T06:05:54.231Z,42.26
2017-12-04T06:08:22.544Z,42.23
2017-12-04T06:10:50.959Z,42.23
2017-12-04T06:13:19.652Z,42.34
2017-12-04T06:15:47.964Z,42.55
2017-12-04T06:18:16.248Z,43.87
2017-12-04T06:20:44.578Z,43.90
2017-12-04T06:23:12.946Z,43.63
2017-12-04T06:25:41.235Z,43.30
2017-12-04T06:28:09.496Z,43.33
2017-12-04T06:30:37.775Z,43.45
2017-12-04T06:33:06.211Z,43.45
2017-12-04T06:35:34.540Z,43.54
2017-12-04T06:38:02.815Z,43.62
2017-12-04T06:40:31.106Z,43.61
2017-12-04T06:42:59.391Z,43.77
2017-12-04T06:45:27.682Z,43.71
2017-12-04T06:47:56.133Z,43.61
2017-12-04T06:50:24.443Z,43.69
2017-12-04T06:52:52.772Z,44.23
2017-12-04T06:55:21.089Z,45.53
2017-12-04T06:57:49.392Z,46.30
2017-12-04T07:00:17.691Z,46.52
2017-12-04T07:02:45.979Z,46.08
2017-12-04T07:05:14.303Z,46.43
2017-12-04T07:07:42.611Z,46.34
2017-12-04T07:10:10.919Z,45.87
2017-12-04T07:12:39.215Z,45.48
2017-12-04T07:15:07.563Z,44.90
2017-12-04T07:17:35.923Z,44.65
2017-12-04T07:20:04.264Z,44.52
2017-12-04T07:22:32.607Z,44.53
2017-12-04T07:25:00.985Z,44.56
2017-12-04T07:27:29.332Z,44.46
2017-12-04T07:29:57.620Z,44.43
2017-12-04T07:32:26.099Z,44.81
2017-12-04T07:34:54.666Z,44.52
2017-12-04T07:37:23.471Z,44.41
2017-12-04T07:39:52.399Z,44.37
2017-12-04T07:42:21.256Z,44.53
2017-12-04T07:44:50.800Z,44.45
2017-12-04T07:47:19.391Z,44.46
2017-12-04T07:49:48.124Z,44.38
2017-12-04T07:52:16.488Z,44.23
2017-12-04T07:54:45.105Z,44.11
2017-12-04T07:57:14.123Z,44.06
2017-12-04T07:59:42.438Z,44.04
2017-12-04T08:02:10.856Z,44.01
2017-12-04T08:04:39.414Z,44.00
2017-12-04T08:07:07.919Z,43.96
2017-12-04T08:09:36.375Z,43.94
2017-12-04T08:12:04.731Z,43.89
2017-12-04T08:14:33.119Z,43.87
2017-12-04T08:17:01.723Z,43.89
2017-12-04T08:19:30.015Z,43.90
2017-12-04T08:21:58.370Z,43.93
2017-12-04T08:24:26.811Z,44.16
2017-12-04T08:26:55.105Z,44.19
2017-12-04T08:29:23.623Z,44.19
2017-12-04T08:31:52.096Z,44.17
2017-12-04T08:34:20.387Z,44.21
2017-12-04T08:36:48.843Z,44.25
2017-12-04T08:39:17.090Z,44.26
2017-12-04T08:41:45.404Z,44.31
2017-12-04T08:44:13.684Z,44.35
2017-12-04T08:46:42.007Z,44.35
2017-12-04T08:49:10.395Z,44.18
2017-12-04T08:51:38.682Z,44.35
2017-12-04T08:54:07.020Z,44.22
2017-12-04T08:56:35.471Z,44.28
2017-12-04T08:59:03.835Z,44.28
2017-12-04T09:01:32.143Z,44.31
2017-12-04T09:04:00.406Z,44.35
2017-12-04T09:06:28.712Z,44.23
2017-12-04T09:08:56.999Z,44.17
2017-12-04T09:11:25.299Z,44.26
2017-12-04T09:13:53.611Z,44.30
2017-12-04T09:16:22.090Z,44.45
2017-12-04T09:18:50.470Z,44.58
2017-12-04T09:21:18.772Z,44.41
2017-12-04T09:23:47.076Z,44.52
2017-12-04T09:26:15.419Z,44.45
2017-12-04T09:28:43.710Z,44.54
2017-12-04T09:31:12.007Z,44.60
2017-12-04T09:33:40.286Z,44.60
2017-12-04T09:36:08.607Z,44.42
2017-12-04T09:38:36.904Z,44.20
2017-12-04T09:41:05.288Z,44.32
2017-12-04T09:43:33.575Z,44.35
2017-12-04T09:46:01.867Z,44.36
2017-12-04T09:48:30.131Z,44.32
2017-12-04T09:50:58.426Z,44.40
2017-12-04T09:53:26.820Z,44.33
2017-12-04T09:55:55.147Z,44.39
2017-12-04T09:58:23.424Z,44.32
2017-12-04T10:00:51.727Z,44.30
2017-12-04T10:03:20.044Z,44.32
2017-12-04T10:05:48.495Z,44.16
2017-12-04T10:08:16.767Z,43.77
2017-12-04T10:10:45.088Z,43.49
2017-12-04T10:13:13.354Z,43.67
2017-12-04T10:15:41.744Z,43.69
2017-12-04T10:18:10.084Z,43.66
2017-12-04T10:20:38.387Z,43.67
2017-12-04T10:23:06.696Z,43.72
2017-12-04T10:25:35.011Z,43.81
2017-12-04T10:28:03.527Z,43.99
2017-12-04T10:30:32.019Z,44.09
2017-12-04T10:33:00.387Z,44.11
2017-12-04T10:35:28.767Z,44.20
2017-12-04T10:37:57.056Z,44.30
2017-12-04T10:40:25.396Z,44.39
2017-12-04T10:42:53.768Z,44.41
2017-12-04T10:45:22.083Z,44.42
2017-12-04T10:47:50.463Z,44.40
2017-12-04T10:50:18.966Z,44.33
2017-12-04T10:52:47.287Z,44.22
2017-12-04T10:55:15.628Z,44.07
2017-12-04T10:57:43.946Z,43.77
2017-12-04T11:00:12.291Z,43.86
2017-12-04T11:02:40.586Z,43.59
2017-12-04T11:05:09.003Z,43.61
2017-12-04T11:07:37.311Z,43.52
2017-12-04T11:10:05.623Z,43.45
2017-12-04T11:12:33.978Z,43.28
2017-12-04T11:15:02.275Z,43.19
2017-12-04T11:17:30.793Z,43.23
2017-12-04T11:19:59.115Z,43.29
2017-12-04T11:22:27.542Z,43.40
2017-12-04T11:24:55.807Z,43.32
2017-12-04T11:27:24.135Z,43.32
2017-12-04T11:29:52.548Z,43.28
2017-12-04T11:32:20.961Z,43.20
2017-12-04T11:34:49.303Z,43.13
2017-12-04T11:37:17.653Z,43.04
2017-12-04T11:39:46.083Z,42.95
2017-12-04T11:42:14.442Z,43.00
2017-12-04T11:44:42.742Z,43.05
2017-12-04T11:47:11.116Z,43.22
2017-12-04T11:49:39.591Z,43.15
2017-12-04T11:52:08.096Z,43.14
2017-12-04T11:54:36.388Z,43.13
2017-12-04T11:57:04.712Z,42.95
2017-12-04T11:59:33.035Z,42.93
2017-12-04T12:02:01.563Z,43.01
2017-12-04T12:04:29.843Z,43.18
2017-12-04T12:06:58.196Z,43.34
2017-12-04T12:09:26.465Z,43.41
2017-12-04T12:11:54.911Z,43.35
2017-12-04T12:14:23.355Z,43.35
2017-12-04T12:16:51.699Z,43.45
2017-12-04T12:19:20.018Z,43.42
2017-12-04T12:21:48.427Z,43.42
2017-12-04T12:24:16.715Z,43.33
2017-12-04T12:26:45.035Z,43.26
2017-12-04T12:29:13.313Z,43.25
2017-12-04T12:31:41.745Z,43.19
2017-12-04T12:34:10.176Z,43.14
2017-12-04T12:36:38.467Z,43.13
2017-12-04T12:39:06.947Z,43.17
2017-12-04T12:41:35.299Z,43.09
2017-12-04T12:44:03.590Z,43.07
2017-12-04T12:46:31.887Z,42.98
2017-12-04T12:49:00.191Z,42.91
2017-12-04T12:51:28.554Z,42.85
2017-12-04T12:53:56.870Z,42.75
2017-12-04T12:56:25.212Z,42.79
2017-12-04T12:58:53.531Z,42.84
2017-12-04T13:01:21.831Z,42.83
2017-12-04T13:03:50.140Z,42.85
2017-12-04T13:06:18.423Z,42.90
2017-12-04T13:08:46.705Z,43.07
2017-12-04T13:11:15.013Z,43.14
2017-12-04T13:13:43.336Z,43.17
2017-12-04T13:16:11.722Z,43.25
2017-12-04T13:18:40.160Z,43.29
2017-12-04T13:21:08.474Z,43.23
2017-12-04T13:23:36.923Z,43.37
2017-12-04T13:26:05.245Z,43.41
2017-12-04T13:28:33.683Z,43.45
2017-12-04T13:31:02.036Z,43.42
2017-12-04T13:35:41.571Z,43.34
2017-12-04T13:38:10.011Z,41.42
2017-12-04T13:40:38.311Z,42.78
2017-12-04T13:43:06.634Z,43.07
2017-12-04T13:45:34.967Z,42.94
2017-12-04T13:48:03.315Z,42.04
2017-12-04T13:50:31.839Z,42.38
2017-12-04T13:53:00.368Z,42.51
2017-12-04T13:55:28.647Z,42.62
2017-12-04T13:57:57.051Z,42.75
2017-12-04T14:00:25.534Z,42.86
2017-12-04T14:02:53.859Z,42.92
2017-12-04T14:05:29.060Z,42.90
2017-12-04T14:07:57.366Z,42.98
2017-12-04T14:10:25.813Z,43.01
2017-12-04T14:12:54.251Z,43.01
2017-12-04T14:15:22.556Z,43.13
2017-12-04T14:17:50.856Z,43.22
2017-12-04T14:20:20.125Z,43.31
2017-12-04T14:22:48.406Z,43.45
2017-12-04T14:25:16.696Z,43.52
2017-12-04T14:27:45.060Z,43.62
2017-12-04T14:30:13.352Z,43.66
2017-12-04T14:32:41.654Z,43.69
2017-12-04T14:35:10.009Z,43.74
2017-12-04T14:37:38.307Z,45.22
2017-12-04T14:40:06.661Z,44.88
2017-12-04T14:42:34.987Z,45.23
2017-12-04T14:45:03.423Z,45.28
2017-12-04T14:47:31.755Z,45.16
2017-12-04T14:50:00.006Z,45.17
2017-12-04T14:52:28.351Z,44.87
2017-12-04T14:54:56.690Z,44.83
2017-12-04T14:57:25.011Z,44.67
2017-12-04T14:59:53.316Z,44.66
2017-12-04T15:02:21.656Z,44.41
2017-12-04T15:04:49.930Z,44.20
2017-12-04T15:07:18.311Z,44.15
2017-12-04T15:09:46.658Z,43.88
2017-12-04T15:12:14.991Z,43.62
2017-12-04T15:14:43.268Z,43.52
2017-12-04T15:17:11.611Z,43.54
2017-12-04T15:19:39.975Z,43.48
2017-12-04T15:22:08.312Z,43.38
2017-12-04T15:24:36.711Z,43.41
2017-12-04T15:27:05.031Z,43.32
2017-12-04T15:29:33.309Z,43.21
2017-12-04T15:32:01.613Z,43.23
2017-12-04T15:34:29.903Z,43.12
2017-12-04T15:36:58.235Z,43.07
2017-12-04T15:39:26.516Z,43.06
2017-12-04T15:41:54.806Z,42.98
2017-12-04T15:44:23.080Z,42.98
2017-12-04T15:46:51.379Z,43.05
2017-12-04T15:49:19.716Z,43.10
2017-12-04T15:51:48.784Z,43.03
2017-12-04T15:54:17.374Z,42.99
2017-12-04T15:56:45.658Z,43.00
2017-12-04T15:59:13.935Z,42.96
2017-12-04T16:01:42.218Z,42.94
2017-12-04T16:04:10.511Z,42.87
2017-12-04T16:06:38.835Z,42.73
2017-12-04T16:09:07.160Z,42.84
2017-12-04T16:11:35.671Z,42.83
2017-12-04T16:14:04.031Z,42.70
2017-12-04T16:16:32.387Z,42.67
2017-12-04T16:19:00.663Z,42.71
2017-12-04T16:21:28.980Z,42.76
2017-12-04T16:23:57.269Z,42.86
2017-12-04T16:26:25.720Z,42.83
2017-12-04T16:28:54.011Z,42.79
2017-12-04T16:31:22.304Z,42.91
2017-12-04T16:33:50.579Z,42.99
2017-12-04T16:36:18.884Z,43.07
2017-12-04T16:38:47.172Z,42.96
2017-12-04T16:41:15.464Z,42.96
2017-12-04T16:43:43.747Z,42.96
2017-12-04T16:46:12.084Z,42.85
2017-12-04T16:48:40.375Z,43.10
2017-12-04T16:51:08.687Z,43.43
2017-12-04T16:53:36.979Z,43.35
2017-12-04T16:56:05.419Z,43.49
2017-12-04T16:58:33.884Z,43.67
2017-12-04T17:01:02.187Z,43.80
2017-12-04T17:03:30.467Z,44.42
2017-12-04T17:05:58.783Z,44.52
2017-12-04T17:08:27.143Z,44.46
2017-12-04T17:10:55.488Z,44.76
2017-12-04T17:13:23.779Z,44.54
2017-12-04T17:15:52.246Z,44.37
2017-12-04T17:18:20.760Z,44.24
2017-12-04T17:20:49.219Z,44.11
2017-12-04T17:23:17.530Z,43.94
2017-12-04T17:25:45.832Z,43.86
2017-12-04T17:28:14.123Z,43.80
2017-12-04T17:30:42.519Z,43.79
2017-12-04T17:33:10.936Z,43.74
2017-12-04T17:35:39.319Z,43.79
2017-12-04T17:38:07.731Z,43.73
2017-12-04T17:40:36.048Z,43.39
2017-12-04T17:43:04.483Z,43.52
2017-12-04T17:45:32.779Z,43.53
2017-12-04T17:48:01.224Z,43.52
2017-12-04T17:50:29.515Z,43.12
2017-12-04T17:52:57.795Z,43.10
2017-12-04T17:55:26.240Z,43.05
2017-12-04T17:57:54.525Z,42.91
2017-12-04T18:00:24.768Z,42.81
2017-12-04T18:02:53.168Z,42.66
2017-12-04T18:05:21.459Z,42.54
2017-12-04T18:07:49.764Z,42.44
2017-12-04T18:10:18.087Z,42.31
2017-12-04T18:12:46.387Z,42.25
2017-12-04T18:15:14.771Z,42.09
2017-12-04T18:17:43.065Z,41.99
2017-12-04T18:20:11.523Z,41.92
2017-12-04T18:22:39.884Z,42.01
2017-12-04T18:25:08.171Z,42.02
2017-12-04T18:27:36.487Z,42.08
2017-12-04T18:30:04.886Z,42.02
2017-12-04T18:32:33.295Z,42.11
2017-12-04T18:35:01.608Z,41.97
2017-12-04T18:37:30.048Z,42.28
2017-12-04T18:39:58.324Z,42.45
2017-12-04T18:42:26.792Z,42.70
2017-12-04T18:44:55.095Z,42.88
2017-12-04T18:47:23.495Z,43.09
2017-12-04T18:49:51.795Z,43.33
2017-12-04T18:52:20.136Z,43.24
2017-12-04T18:54:48.399Z,43.26
2017-12-04T18:57:16.813Z,43.01
2017-12-04T18:59:45.249Z,42.96
2017-12-04T19:02:13.580Z,42.87
2017-12-04T19:04:42.020Z,42.98
2017-12-04T19:07:10.518Z,42.91
2017-12-04T19:09:38.844Z,42.85
2017-12-04T19:12:07.202Z,42.76
2017-12-04T19:14:35.519Z,42.86
2017-12-04T19:17:03.847Z,42.80
2017-12-04T19:19:32.104Z,42.84
2017-12-04T19:22:00.574Z,42.83
2017-12-04T19:24:28.880Z,43.05
2017-12-04T19:26:57.163Z,42.98
2017-12-04T19:29:25.455Z,43.02
2017-12-04T19:31:53.751Z,43.02
2017-12-04T19:34:22.021Z,43.02
2017-12-04T19:36:50.324Z,42.97
2017-12-04T19:39:18.803Z,43.07
2017-12-04T19:41:47.276Z,43.09
2017-12-04T19:44:19.835Z,43.07
2017-12-04T19:46:48.477Z,43.00
2017-12-04T19:49:16.738Z,43.00
2017-12-04T19:51:45.047Z,42.98
2017-12-04T19:54:13.467Z,42.97
2017-12-04T19:56:41.783Z,42.93
2017-12-04T19:59:13.111Z,42.86
2017-12-04T20:01:42.499Z,42.88
2017-12-04T20:04:10.824Z,42.86
2017-12-04T20:06:39.164Z,42.87
2017-12-04T20:09:07.543Z,42.83
2017-12-04T20:11:36.013Z,42.96
2017-12-04T20:14:04.330Z,42.99
2017-12-04T20:16:32.772Z,43.04
2017-12-04T20:19:01.254Z,42.92
2017-12-04T20:21:29.905Z,42.92
2017-12-04T20:23:58.176Z,43.02
2017-12-04T20:26:26.599Z,42.95
2017-12-04T20:28:55.439Z,42.92
2017-12-04T20:31:28.552Z,42.88
2017-12-04T20:33:57.364Z,42.96
2017-12-04T20:36:27.677Z,43.02
2017-12-04T20:38:55.947Z,42.94
2017-12-04T20:41:24.269Z,42.93
2017-12-04T20:43:52.828Z,43.09
2017-12-04T20:46:21.323Z,43.05
2017-12-04T20:48:50.419Z,43.06
2017-12-04T20:51:18.827Z,43.04
2017-12-04T20:53:47.141Z,42.98
2017-12-04T20:56:15.448Z,42.98
2017-12-04T20:58:43.735Z,42.94
2017-12-04T21:01:13.107Z,42.90
2017-12-04T21:03:41.511Z,42.91
2017-12-04T21:06:09.903Z,42.89
2017-12-04T21:08:48.182Z,42.91
2017-12-04T21:12:19.740Z,42.88
2017-12-04T21:15:59.526Z,42.91
2017-12-04T21:18:27.843Z,42.92
2017-12-04T21:20:56.200Z,42.84
2017-12-04T21:23:24.479Z,42.92
2017-12-04T21:25:52.806Z,42.85
2017-12-04T21:28:21.128Z,42.84
2017-12-04T21:30:49.567Z,42.85
2017-12-04T21:33:17.828Z,42.98
2017-12-04T21:35:46.203Z,42.90
2017-12-04T21:38:14.459Z,42.67
2017-12-04T21:40:42.763Z,42.58
2017-12-04T21:43:11.076Z,42.62
2017-12-04T21:45:39.535Z,42.76
2017-12-04T21:48:07.823Z,42.78
2017-12-04T21:50:36.195Z,42.67
2017-12-04T21:53:04.498Z,42.78
2017-12-04T21:55:32.952Z,42.85
2017-12-04T21:58:01.242Z,42.80
2017-12-04T22:00:29.551Z,42.83
2017-12-04T22:02:57.859Z,42.84
2017-12-04T22:05:26.160Z,42.84
2017-12-04T22:07:54.451Z,42.89
2017-12-04T22:10:22.739Z,42.73
2017-12-04T22:12:51.019Z,42.77
2017-12-04T22:15:19.340Z,42.62
2017-12-04T22:17:47.642Z,42.58
2017-12-04T22:20:16.098Z,42.55
2017-12-04T22:22:44.563Z,42.62
2017-12-04T22:25:12.839Z,42.71
2017-12-04T22:27:41.148Z,42.58
2017-12-04T22:30:09.471Z,42.51
2017-12-04T22:32:37.745Z,42.70
2017-12-04T22:35:06.050Z,42.52
2017-12-04T22:37:34.971Z,42.50
2017-12-04T22:40:03.407Z,42.67
2017-12-04T22:42:31.695Z,42.63
2017-12-04T22:45:00.075Z,42.61
2017-12-04T22:47:28.567Z,42.63
2017-12-04T22:49:56.853Z,42.63
2017-12-04T22:52:25.330Z,42.63
2017-12-04T22:54:53.828Z,42.64
2017-12-04T22:57:22.152Z,42.64
2017-12-04T22:59:50.438Z,42.65
2017-12-04T23:02:18.747Z,42.61
2017-12-04T23:04:47.015Z,42.62
2017-12-04T23:07:15.367Z,42.65
2017-12-04T23:09:43.630Z,42.65
2017-12-04T23:12:11.967Z,42.63
2017-12-04T23:14:40.397Z,42.56
2017-12-04T23:17:08.943Z,42.58
2017-12-04T23:19:37.355Z,42.59
2017-12-04T23:22:05.664Z,42.65
2017-12-04T23:24:33.995Z,42.67
2017-12-04T23:27:02.334Z,42.70
2017-12-04T23:29:30.602Z,42.62
2017-12-04T23:31:58.987Z,42.62
2017-12-04T23:34:27.243Z,42.76
2017-12-04T23:36:55.731Z,42.72
2017-12-04T23:39:23.987Z,42.75
2017-12-04T23:41:52.507Z,42.69
2017-12-04T23:44:20.936Z,42.67
2017-12-04T23:46:49.262Z,42.63
2017-12-04T23:49:17.544Z,42.60
2017-12-04T23:51:45.919Z,42.59
2017-12-04T23:54:21.192Z,42.53
2017-12-04T23:56:49.529Z,42.60
2017-12-04T23:59:17.825Z,42.62
